KINL/INL METAR and TAF weather

Enter ICAO airport designator
Station Type Date Time Source
KINL METAR 2022/06/27 18:54 UTC NOAA

KINL 271854Z AUTO 16006KT 10SM -RA FEW060 FEW075 FEW090 21/16 A3006 RMK AO2 RAB42 TSB29E44 SLP183 P0002 T02110156


Station Type Date Time Source
KINL Decoded METAR 2022/06/27 18:54 UTC NOAA

FALLS INTERNATIONAL AIRPORT , MN, United States (KINL) 48-34N 093-24W 360M
Jun 27, 2022 - 02:54 PM EDT / 2022.06.27 1854 UTC
Wind: from the SSE (160 degrees) at 7 MPH (6 KT):0
Visibility: 10 mile(s):0
Sky conditions: mostly clear
Weather: light rain
Precipitation last hour: 0.02 inches
Temperature: 70.0 F (21.1 C)
Dew Point: 60.1 F (15.6 C)
Relative Humidity: 70%
Pressure (altimeter): 30.06 in. Hg (1017 hPa)
ob: KINL 271854Z AUTO 16006KT 10SM -RA FEW060 FEW075 FEW090 21/16 A3006 RMK AO2 RAB42 TSB29E44 SLP183 P0002 T02110156
cycle: 19

Station Type Date Time Source
KINL TAF 2022/06/27 19:36 UTC NOAA

TAF
AMD KINL 271834Z 2719/2818 21009KT P6SM SCT070
TEMPO 2719/2720 2SM -TSRA BR BKN035CB BKN070
FM280000 25009KT P6SM SCT250
FM280500 27005KT P6SM VCTS FEW050CB BKN120
FM281100 31005KT P6SM SCT120
FM281500 33008KT P6SM SCT150

Example: see airport list